sensor_id;sensor_type;location;lat;lon;timestamp;pressure;altitude;pressure_sealevel;temperature;humidity
24306;BME280;12423;48.768;8.850;2022-08-19T00:01:29;96598.06;;;20.11;100.00
24306;BME280;12423;48.768;8.850;2022-08-19T00:03:31;96596.63;;;20.15;100.00
24306;BME280;12423;48.768;8.850;2022-08-19T00:05:32;96608.06;;;20.10;100.00
24306;BME280;12423;48.768;8.850;2022-08-19T00:07:33;96595.56;;;20.09;100.00
24306;BME280;12423;48.768;8.850;2022-08-19T00:09:34;96594.31;;;20.12;100.00
24306;BME280;12423;48.768;8.850;2022-08-19T00:11:35;96601.16;;;20.07;100.00
24306;BME280;12423;48.768;8.850;2022-08-19T00:13:38;96587.63;;;20.07;100.00
24306;BME280;12423;48.768;8.850;2022-08-19T00:15:39;96594.72;;;20.09;100.00
24306;BME280;12423;48.768;8.850;2022-08-19T00:17:42;96588.03;;;20.11;100.00
24306;BME280;12423;48.768;8.850;2022-08-19T00:19:43;96587.63;;;20.07;100.00
24306;BME280;12423;48.768;8.850;2022-08-19T00:21:44;96589.06;;;20.03;100.00
24306;BME280;12423;48.768;8.850;2022-08-19T00:23:45;96591.78;;;20.03;100.00
24306;BME280;12423;48.768;8.850;2022-08-19T00:25:46;96590.97;;;20.03;100.00
24306;BME280;12423;48.768;8.850;2022-08-19T00:27:47;96580.16;;;20.10;100.00
24306;BME280;12423;48.768;8.850;2022-08-19T00:29:48;96588.44;;;20.01;100.00
24306;BME280;12423;48.768;8.850;2022-08-19T00:31:51;96577.63;;;20.01;100.00
24306;BME280;12423;48.768;8.850;2022-08-19T00:33:55;96585.09;;;19.99;100.00
24306;BME280;12423;48.768;8.850;2022-08-19T00:35:56;96571.34;;;20.01;100.00
24306;BME280;12423;48.768;8.850;2022-08-19T00:37:57;96576.31;;;19.97;100.00
24306;BME280;12423;48.768;8.850;2022-08-19T00:39:58;96573.22;;;20.00;100.00
24306;BME280;12423;48.768;8.850;2022-08-19T00:41:58;96563.81;;;19.96;100.00
24306;BME280;12423;48.768;8.850;2022-08-19T00:44:08;96557.34;;;19.97;100.00
24306;BME280;12423;48.768;8.850;2022-08-19T00:46:09;96549.63;;;19.94;100.00
24306;BME280;12423;48.768;8.850;2022-08-19T00:48:11;96545.88;;;19.95;100.00
24306;BME280;12423;48.768;8.850;2022-08-19T00:50:17;96540.47;;;19.95;100.00
24306;BME280;12423;48.768;8.850;2022-08-19T00:52:25;96564.63;;;19.90;100.00
24306;BME280;12423;48.768;8.850;2022-08-19T00:54:29;96567.34;;;19.90;100.00
24306;BME280;12423;48.768;8.850;2022-08-19T00:56:32;96574.41;;;19.91;100.00
24306;BME280;12423;48.768;8.850;2022-08-19T00:58:34;96565.88;;;19.94;100.00
24306;BME280;12423;48.768;8.850;2022-08-19T01:00:35;96569.19;;;19.89;100.00
24306;BME280;12423;48.768;8.850;2022-08-19T01:02:38;96571.47;;;19.86;100.00
24306;BME280;12423;48.768;8.850;2022-08-19T01:04:39;96575.06;;;19.93;100.00
24306;BME280;12423;48.768;8.850;2022-08-19T01:06:40;96579.22;;;19.89;100.00
24306;BME280;12423;48.768;8.850;2022-08-19T01:08:42;96576.28;;;19.84;100.00
24306;BME280;12423;48.768;8.850;2022-08-19T01:10:49;96576.28;;;19.84;100.00
24306;BME280;12423;48.768;8.850;2022-08-19T01:12:51;96579.63;;;19.86;100.00
24306;BME280;12423;48.768;8.850;2022-08-19T01:14:53;96573.38;;;19.85;100.00
24306;BME280;12423;48.768;8.850;2022-08-19T01:16:56;96574.59;;;19.83;100.00
24306;BME280;12423;48.768;8.850;2022-08-19T01:18:57;96574.81;;;19.88;100.00
24306;BME280;12423;48.768;8.850;2022-08-19T01:21:02;96574.56;;;19.76;100.00
24306;BME280;12423;48.768;8.850;2022-08-19T01:23:06;96571.06;;;19.82;100.00
24306;BME280;12423;48.768;8.850;2022-08-19T01:25:08;96567.13;;;19.85;100.00
24306;BME280;12423;48.768;8.850;2022-08-19T01:27:09;96555.81;;;19.81;100.00
24306;BME280;12423;48.768;8.850;2022-08-19T01:29:11;96561.25;;;19.81;100.00
24306;BME280;12423;48.768;8.850;2022-08-19T01:31:18;96560.41;;;19.81;100.00
24306;BME280;12423;48.768;8.850;2022-08-19T01:33:21;96562.94;;;19.82;100.00
24306;BME280;12423;48.768;8.850;2022-08-19T01:35:23;96563.31;;;19.79;100.00
24306;BME280;12423;48.768;8.850;2022-08-19T01:37:25;96560.03;;;19.84;100.00
24306;BME280;12423;48.768;8.850;2022-08-19T01:39:26;96558.09;;;19.78;100.00
24306;BME280;12423;48.768;8.850;2022-08-19T01:41:27;96558.31;;;19.76;100.00
24306;BME280;12423;48.768;8.850;2022-08-19T01:43:28;96546.81;;;19.74;100.00
24306;BME280;12423;48.768;8.850;2022-08-19T01:45:31;96567.22;;;19.70;100.00
24306;BME280;12423;48.768;8.850;2022-08-19T01:47:35;96563.91;;;19.75;100.00
24306;BME280;12423;48.768;8.850;2022-08-19T01:49:36;96563.66;;;19.69;100.00
24306;BME280;12423;48.768;8.850;2022-08-19T01:51:38;96564.31;;;19.72;100.00
24306;BME280;12423;48.768;8.850;2022-08-19T01:53:40;96562.63;;;19.70;100.00
24306;BME280;12423;48.768;8.850;2022-08-19T01:55:42;96565.97;;;19.73;100.00
24306;BME280;12423;48.768;8.850;2022-08-19T01:57:49;96552.63;;;19.71;100.00
24306;BME280;12423;48.768;8.850;2022-08-19T01:59:51;96558.47;;;19.75;100.00
24306;BME280;12423;48.768;8.850;2022-08-19T02:01:52;96560.75;;;19.71;100.00
24306;BME280;12423;48.768;8.850;2022-08-19T02:03:53;96554.72;;;19.69;100.00
24306;BME280;12423;48.768;8.850;2022-08-19T02:05:57;96555.75;;;19.68;100.00
24306;BME280;12423;48.768;8.850;2022-08-19T02:08:00;96558.25;;;19.69;100.00
24306;BME280;12423;48.768;8.850;2022-08-19T02:10:03;96559.09;;;19.70;100.00
24306;BME280;12423;48.768;8.850;2022-08-19T02:12:07;96562.22;;;19.67;100.00
24306;BME280;12423;48.768;8.850;2022-08-19T02:14:09;96565.75;;;19.67;100.00
24306;BME280;12423;48.768;8.850;2022-08-19T02:16:10;96564.94;;;19.67;100.00
24306;BME280;12423;48.768;8.850;2022-08-19T02:18:11;96558.66;;;19.66;100.00
24306;BME280;12423;48.768;8.850;2022-08-19T02:20:13;96564.06;;;19.66;100.00
24306;BME280;12423;48.768;8.850;2022-08-19T02:22:14;96567.44;;;19.68;100.00
24306;BME280;12423;48.768;8.850;2022-08-19T02:24:15;96561.13;;;19.61;100.00
24306;BME280;12423;48.768;8.850;2022-08-19T02:26:17;96562.63;;;19.64;100.00
24306;BME280;12423;48.768;8.850;2022-08-19T02:28:19;96558.81;;;19.58;100.00
24306;BME280;12423;48.768;8.850;2022-08-19T02:30:20;96564.22;;;19.58;100.00
24306;BME280;12423;48.768;8.850;2022-08-19T02:35:56;96556.09;;;19.58;100.00
24306;BME280;12423;48.768;8.850;2022-08-19T02:37:57;96551.75;;;19.57;100.00
24306;BME280;12423;48.768;8.850;2022-08-19T02:40:17;96547.97;;;19.58;100.00
24306;BME280;12423;48.768;8.850;2022-08-19T02:42:18;96551.13;;;19.55;100.00
24306;BME280;12423;48.768;8.850;2022-08-19T02:44:19;96549.84;;;19.51;100.00
24306;BME280;12423;48.768;8.850;2022-08-19T02:46:27;96551.31;;;19.54;100.00
24306;BME280;12423;48.768;8.850;2022-08-19T02:48:29;96547.31;;;19.49;100.00
24306;BME280;12423;48.768;8.850;2022-08-19T02:50:31;96546.94;;;19.52;100.00
24306;BME280;12423;48.768;8.850;2022-08-19T02:52:33;96544.19;;;19.46;100.00
24306;BME280;12423;48.768;8.850;2022-08-19T02:54:34;96542.69;;;19.43;100.00
24306;BME280;12423;48.768;8.850;2022-08-19T02:56:37;96548.13;;;19.43;100.00
24306;BME280;12423;48.768;8.850;2022-08-19T02:58:38;96549.38;;;19.41;100.00
24306;BME280;12423;48.768;8.850;2022-08-19T03:00:49;96558.31;;;19.41;100.00
24306;BME280;12423;48.768;8.850;2022-08-19T03:02:50;96556.66;;;19.40;100.00
24306;BME280;12423;48.768;8.850;2022-08-19T03:04:51;96555.19;;;19.38;100.00
24306;BME280;12423;48.768;8.850;2022-08-19T03:06:52;96562.69;;;19.36;100.00
24306;BME280;12423;48.768;8.850;2022-08-19T03:08:54;96562.88;;;19.34;100.00
24306;BME280;12423;48.768;8.850;2022-08-19T03:10:56;96561.00;;;19.34;100.00
24306;BME280;12423;48.768;8.850;2022-08-19T03:12:56;96561.78;;;19.28;100.00
24306;BME280;12423;48.768;8.850;2022-08-19T03:14:57;96556.75;;;19.25;100.00
24306;BME280;12423;48.768;8.850;2022-08-19T03:16:59;96565.94;;;19.24;100.00
24306;BME280;12423;48.768;8.850;2022-08-19T03:19:01;96563.84;;;19.26;100.00
24306;BME280;12423;48.768;8.850;2022-08-19T03:21:03;96568.00;;;19.22;100.00
24306;BME280;12423;48.768;8.850;2022-08-19T03:23:04;96572.97;;;19.19;100.00
24306;BME280;12423;48.768;8.850;2022-08-19T03:25:05;96571.09;;;19.19;100.00
24306;BME280;12423;48.768;8.850;2022-08-19T03:27:06;96571.75;;;19.21;100.00
24306;BME280;12423;48.768;8.850;2022-08-19T03:29:07;96567.50;;;19.12;100.00
24306;BME280;12423;48.768;8.850;2022-08-19T03:31:12;96562.47;;;19.09;100.00
24306;BME280;12423;48.768;8.850;2022-08-19T03:33:14;96562.09;;;19.12;100.00
24306;BME280;12423;48.768;8.850;2022-08-19T03:35:15;96542.13;;;19.13;100.00
24306;BME280;12423;48.768;8.850;2022-08-19T03:37:16;96552.94;;;19.13;100.00
24306;BME280;12423;48.768;8.850;2022-08-19T03:39:17;96554.16;;;19.10;100.00
24306;BME280;12423;48.768;8.850;2022-08-19T03:41:21;96563.72;;;19.06;100.00
24306;BME280;12423;48.768;8.850;2022-08-19T03:43:23;96555.56;;;19.00;100.00
24306;BME280;12423;48.768;8.850;2022-08-19T03:45:25;96552.47;;;19.03;100.00
24306;BME280;12423;48.768;8.850;2022-08-19T03:47:26;96548.25;;;19.00;100.00
24306;BME280;12423;48.768;8.850;2022-08-19T03:49:29;96550.78;;;19.02;100.00
24306;BME280;12423;48.768;8.850;2022-08-19T03:51:33;96559.47;;;18.97;100.00
24306;BME280;12423;48.768;8.850;2022-08-19T03:53:35;96553.69;;;19.00;100.00
24306;BME280;12423;48.768;8.850;2022-08-19T03:55:40;96560.16;;;18.99;100.00
24306;BME280;12423;48.768;8.850;2022-08-19T03:57:41;96559.47;;;18.97;100.00
24306;BME280;12423;48.768;8.850;2022-08-19T03:59:42;96554.94;;;18.98;100.00
24306;BME280;12423;48.768;8.850;2022-08-19T04:01:44;96568.66;;;18.96;100.00
24306;BME280;12423;48.768;8.850;2022-08-19T04:03:46;96566.13;;;18.94;100.00
24306;BME280;12423;48.768;8.850;2022-08-19T04:05:47;96568.00;;;18.94;100.00
24306;BME280;12423;48.768;8.850;2022-08-19T04:07:48;96572.38;;;18.95;100.00
24306;BME280;12423;48.768;8.850;2022-08-19T04:09:49;96572.44;;;19.02;100.00
24306;BME280;12423;48.768;8.850;2022-08-19T04:11:53;96571.78;;;19.00;100.00
24306;BME280;12423;48.768;8.850;2022-08-19T04:13:55;96570.31;;;18.97;100.00
24306;BME280;12423;48.768;8.850;2022-08-19T04:15:56;96576.34;;;18.92;100.00
24306;BME280;12423;48.768;8.850;2022-08-19T04:17:57;96574.44;;;18.93;100.00
24306;BME280;12423;48.768;8.850;2022-08-19T04:19:59;96576.72;;;18.89;100.00
24306;BME280;12423;48.768;8.850;2022-08-19T04:22:00;96579.03;;;18.92;100.00
24306;BME280;12423;48.768;8.850;2022-08-19T04:24:02;96580.06;;;18.91;100.00
24306;BME280;12423;48.768;8.850;2022-08-19T04:26:03;96584.19;;;18.87;100.00
24306;BME280;12423;48.768;8.850;2022-08-19T04:28:04;96587.16;;;18.92;100.00
24306;BME280;12423;48.768;8.850;2022-08-19T04:30:06;96591.13;;;18.96;100.00
24306;BME280;12423;48.768;8.850;2022-08-19T04:32:07;96589.44;;;18.95;100.00
24306;BME280;12423;48.768;8.850;2022-08-19T04:34:10;96586.09;;;18.93;100.00
24306;BME280;12423;48.768;8.850;2022-08-19T04:36:26;96582.38;;;18.94;100.00
24306;BME280;12423;48.768;8.850;2022-08-19T04:38:27;96582.13;;;18.89;100.00
24306;BME280;12423;48.768;8.850;2022-08-19T04:40:28;96581.94;;;18.91;100.00
24306;BME280;12423;48.768;8.850;2022-08-19T04:42:48;96580.69;;;18.93;100.00
24306;BME280;12423;48.768;8.850;2022-08-19T04:44:49;96569.25;;;18.91;100.00
24306;BME280;12423;48.768;8.850;2022-08-19T04:46:51;96576.53;;;18.91;100.00
24306;BME280;12423;48.768;8.850;2022-08-19T04:48:52;96580.88;;;18.92;100.00
24306;BME280;12423;48.768;8.850;2022-08-19T04:50:55;96588.75;;;18.87;100.00
24306;BME280;12423;48.768;8.850;2022-08-19T04:52:59;96584.84;;;18.89;100.00
24306;BME280;12423;48.768;8.850;2022-08-19T04:55:00;96577.94;;;18.87;100.00
24306;BME280;12423;48.768;8.850;2022-08-19T04:57:01;96578.19;;;18.92;100.00
24306;BME280;12423;48.768;8.850;2022-08-19T04:59:02;96577.09;;;18.86;100.00
24306;BME280;12423;48.768;8.850;2022-08-19T05:01:06;96584.44;;;18.92;100.00
24306;BME280;12423;48.768;8.850;2022-08-19T05:03:07;96595.06;;;18.94;100.00
24306;BME280;12423;48.768;8.850;2022-08-19T05:05:09;96591.06;;;18.90;100.00
24306;BME280;12423;48.768;8.850;2022-08-19T05:07:10;96589.38;;;18.89;100.00
24306;BME280;12423;48.768;8.850;2022-08-19T05:09:11;96592.28;;;18.87;100.00
24306;BME280;12423;48.768;8.850;2022-08-19T05:11:33;96592.97;;;18.89;100.00
24306;BME280;12423;48.768;8.850;2022-08-19T05:13:35;96600.69;;;18.92;100.00
24306;BME280;12423;48.768;8.850;2022-08-19T05:15:35;96606.94;;;18.93;100.00
24306;BME280;12423;48.768;8.850;2022-08-19T05:17:36;96609.44;;;18.94;100.00
24306;BME280;12423;48.768;8.850;2022-08-19T05:19:37;96614.00;;;18.94;100.00
24306;BME280;12423;48.768;8.850;2022-08-19T05:21:59;96620.66;;;18.91;100.00
24306;BME280;12423;48.768;8.850;2022-08-19T05:24:20;96627.94;;;18.91;100.00
24306;BME280;12423;48.768;8.850;2022-08-19T05:26:21;96633.16;;;18.92;100.00
24306;BME280;12423;48.768;8.850;2022-08-19T05:28:22;96640.81;;;18.89;100.00
24306;BME280;12423;48.768;8.850;2022-08-19T05:30:23;96641.91;;;18.94;100.00
24306;BME280;12423;48.768;8.850;2022-08-19T05:32:24;96644.81;;;18.93;100.00
24306;BME280;12423;48.768;8.850;2022-08-19T05:34:26;96647.72;;;18.91;100.00
24306;BME280;12423;48.768;8.850;2022-08-19T05:36:28;96656.91;;;18.97;100.00
24306;BME280;12423;48.768;8.850;2022-08-19T05:38:34;96658.78;;;18.96;100.00
24306;BME280;12423;48.768;8.850;2022-08-19T05:40:37;96664.78;;;18.92;100.00
24306;BME280;12423;48.768;8.850;2022-08-19T05:42:38;96671.03;;;18.92;100.00
24306;BME280;12423;48.768;8.850;2022-08-19T05:44:42;96674.38;;;18.94;100.00
24306;BME280;12423;48.768;8.850;2022-08-19T05:46:47;96665.22;;;18.95;100.00
24306;BME280;12423;48.768;8.850;2022-08-19T05:48:48;96666.28;;;18.94;100.00
24306;BME280;12423;48.768;8.850;2022-08-19T05:50:50;96664.59;;;18.93;100.00
24306;BME280;12423;48.768;8.850;2022-08-19T05:52:51;96663.31;;;18.89;100.00
24306;BME280;12423;48.768;8.850;2022-08-19T05:54:52;96660.47;;;18.98;100.00
24306;BME280;12423;48.768;8.850;2022-08-19T05:56:55;96661.50;;;18.96;100.00
24306;BME280;12423;48.768;8.850;2022-08-19T05:58:57;96670.00;;;18.93;100.00
24306;BME280;12423;48.768;8.850;2022-08-19T06:00:59;96670.19;;;18.92;100.00
24306;BME280;12423;48.768;8.850;2022-08-19T06:03:05;96672.31;;;18.96;100.00
24306;BME280;12423;48.768;8.850;2022-08-19T06:05:07;96672.94;;;18.99;100.00
24306;BME280;12423;48.768;8.850;2022-08-19T06:07:09;96672.94;;;18.99;100.00
24306;BME280;12423;48.768;8.850;2022-08-19T06:09:10;96675.91;;;19.04;100.00
24306;BME280;12423;48.768;8.850;2022-08-19T06:11:23;96681.56;;;19.09;100.00
24306;BME280;12423;48.768;8.850;2022-08-19T06:13:25;96669.09;;;19.08;100.00
24306;BME280;12423;48.768;8.850;2022-08-19T06:15:26;96667.03;;;19.10;100.00
24306;BME280;12423;48.768;8.850;2022-08-19T06:17:29;96662.50;;;19.17;100.00
24306;BME280;12423;48.768;8.850;2022-08-19T06:19:30;96661.28;;;19.20;100.00
24306;BME280;12423;48.768;8.850;2022-08-19T06:21:32;96656.50;;;19.22;100.00
24306;BME280;12423;48.768;8.850;2022-08-19T06:23:34;96668.44;;;19.27;100.00
24306;BME280;12423;48.768;8.850;2022-08-19T06:25:35;96657.78;;;19.26;100.00
24306;BME280;12423;48.768;8.850;2022-08-19T06:27:37;96661.53;;;19.25;100.00
24306;BME280;12423;48.768;8.850;2022-08-19T06:29:38;96665.06;;;19.25;100.00
24306;BME280;12423;48.768;8.850;2022-08-19T06:31:44;96656.94;;;19.25;100.00
24306;BME280;12423;48.768;8.850;2022-08-19T06:33:46;96661.09;;;19.21;100.00
24306;BME280;12423;48.768;8.850;2022-08-19T06:35:48;96649.66;;;19.26;100.00
24306;BME280;12423;48.768;8.850;2022-08-19T06:37:49;96648.81;;;19.25;100.00
24306;BME280;12423;48.768;8.850;2022-08-19T06:39:50;96644.84;;;19.21;100.00
24306;BME280;12423;48.768;8.850;2022-08-19T06:41:55;96646.53;;;19.22;100.00
24306;BME280;12423;48.768;8.850;2022-08-19T06:43:58;96657.22;;;19.30;100.00
24306;BME280;12423;48.768;8.850;2022-08-19T06:45:58;96656.78;;;19.33;100.00
24306;BME280;12423;48.768;8.850;2022-08-19T06:47:59;96658.66;;;19.33;100.00
24306;BME280;12423;48.768;8.850;2022-08-19T06:50:00;96660.09;;;19.29;100.00
24306;BME280;12423;48.768;8.850;2022-08-19T06:52:04;96660.56;;;19.32;100.00
24306;BME280;12423;48.768;8.850;2022-08-19T06:54:05;96667.00;;;19.31;100.00
24306;BME280;12423;48.768;8.850;2022-08-19T06:56:06;96664.56;;;19.43;100.00
24306;BME280;12423;48.768;8.850;2022-08-19T06:58:07;96678.31;;;19.42;100.00
24306;BME280;12423;48.768;8.850;2022-08-19T07:00:10;96668.53;;;19.41;100.00
24306;BME280;12423;48.768;8.850;2022-08-19T07:02:14;96667.91;;;19.39;100.00
24306;BME280;12423;48.768;8.850;2022-08-19T07:04:17;96674.38;;;19.44;100.00
24306;BME280;12423;48.768;8.850;2022-08-19T07:06:19;96671.44;;;19.39;100.00
24306;BME280;12423;48.768;8.850;2022-08-19T07:08:20;96668.13;;;19.44;100.00
24306;BME280;12423;48.768;8.850;2022-08-19T07:10:21;96666.31;;;19.51;100.00
24306;BME280;12423;48.768;8.850;2022-08-19T07:12:22;96671.38;;;19.61;100.00
24306;BME280;12423;48.768;8.850;2022-08-19T07:14:26;96677.84;;;19.66;100.00
24306;BME280;12423;48.768;8.850;2022-08-19T07:16:28;96673.81;;;19.77;100.00
24306;BME280;12423;48.768;8.850;2022-08-19T07:18:29;96670.72;;;19.87;100.00
24306;BME280;12423;48.768;8.850;2022-08-19T07:20:30;96679.88;;;19.86;100.00
24306;BME280;12423;48.768;8.850;2022-08-19T07:22:31;96672.81;;;19.85;100.00
24306;BME280;12423;48.768;8.850;2022-08-19T07:24:33;96671.53;;;19.81;100.00
24306;BME280;12423;48.768;8.850;2022-08-19T07:26:39;96678.47;;;19.90;100.00
24306;BME280;12423;48.768;8.850;2022-08-19T07:28:40;96682.66;;;19.99;100.00
24306;BME280;12423;48.768;8.850;2022-08-19T07:30:43;96685.78;;;19.96;100.00
24306;BME280;12423;48.768;8.850;2022-08-19T07:32:44;96686.63;;;19.97;100.00
24306;BME280;12423;48.768;8.850;2022-08-19T07:34:45;96689.78;;;20.00;100.00
24306;BME280;12423;48.768;8.850;2022-08-19T07:36:46;96682.28;;;20.02;100.00
24306;BME280;12423;48.768;8.850;2022-08-19T07:38:49;96700.22;;;20.03;100.00
24306;BME280;12423;48.768;8.850;2022-08-19T07:40:51;96686.66;;;20.03;100.00
24306;BME280;12423;48.768;8.850;2022-08-19T07:42:52;96690.22;;;20.04;100.00
24306;BME280;12423;48.768;8.850;2022-08-19T07:44:53;96683.97;;;20.03;100.00
24306;BME280;12423;48.768;8.850;2022-08-19T07:46:56;96681.50;;;20.15;100.00
24306;BME280;12423;48.768;8.850;2022-08-19T07:48:57;96682.16;;;20.24;100.00
24306;BME280;12423;48.768;8.850;2022-08-19T07:51:02;96687.63;;;20.37;100.00
24306;BME280;12423;48.768;8.850;2022-08-19T07:53:04;96689.28;;;20.25;100.00
24306;BME280;12423;48.768;8.850;2022-08-19T07:55:07;96691.97;;;20.25;100.00
24306;BME280;12423;48.768;8.850;2022-08-19T07:57:08;96680.75;;;20.35;100.00
24306;BME280;12423;48.768;8.850;2022-08-19T07:59:10;96679.97;;;20.41;100.00
24306;BME280;12423;48.768;8.850;2022-08-19T08:01:15;96683.31;;;20.50;100.00
24306;BME280;12423;48.768;8.850;2022-08-19T08:03:19;96667.66;;;20.52;100.00
24306;BME280;12423;48.768;8.850;2022-08-19T08:05:21;96680.00;;;20.54;100.00
24306;BME280;12423;48.768;8.850;2022-08-19T08:07:41;96672.06;;;20.53;100.00
24306;BME280;12423;48.768;8.850;2022-08-19T08:10:00;96685.19;;;20.49;100.00
24306;BME280;12423;48.768;8.850;2022-08-19T08:14:10;96683.75;;;20.53;100.00
24306;BME280;12423;48.768;8.850;2022-08-19T08:16:12;96682.50;;;20.56;100.00
24306;BME280;12423;48.768;8.850;2022-08-19T08:18:13;96686.06;;;20.56;100.00
24306;BME280;12423;48.768;8.850;2022-08-19T08:20:14;96683.31;;;20.50;100.00
24306;BME280;12423;48.768;8.850;2022-08-19T08:22:19;96682.88;;;20.39;100.00
24306;BME280;12423;48.768;8.850;2022-08-19T08:25:02;96684.94;;;20.37;100.00
24306;BME280;12423;48.768;8.850;2022-08-19T08:27:03;96697.69;;;20.43;100.00
24306;BME280;12423;48.768;8.850;2022-08-19T08:29:05;96698.69;;;20.36;100.00
24306;BME280;12423;48.768;8.850;2022-08-19T08:31:08;96694.56;;;20.47;100.00
24306;BME280;12423;48.768;8.850;2022-08-19T08:33:09;96700.03;;;20.53;100.00
24306;BME280;12423;48.768;8.850;2022-08-19T08:35:14;96695.19;;;20.49;100.00
24306;BME280;12423;48.768;8.850;2022-08-19T08:37:15;96698.16;;;20.60;100.00
24306;BME280;12423;48.768;8.850;2022-08-19T08:39:19;96686.88;;;20.57;100.00
24306;BME280;12423;48.768;8.850;2022-08-19T08:41:28;96704.72;;;20.73;100.00
24306;BME280;12423;48.768;8.850;2022-08-19T08:43:37;96700.97;;;20.80;100.00
24306;BME280;12423;48.768;8.850;2022-08-19T08:45:47;96720.19;;;20.79;100.00
24306;BME280;12423;48.768;8.850;2022-08-19T08:47:52;96712.03;;;20.79;100.00
24306;BME280;12423;48.768;8.850;2022-08-19T08:50:03;96716.78;;;20.64;100.00
24306;BME280;12423;48.768;8.850;2022-08-19T08:52:10;96714.63;;;20.59;100.00
24306;BME280;12423;48.768;8.850;2022-08-19T08:54:14;96712.09;;;20.51;100.00
24306;BME280;12423;48.768;8.850;2022-08-19T08:56:16;96703.56;;;20.60;100.00
24306;BME280;12423;48.768;8.850;2022-08-19T08:58:26;96707.59;;;20.65;100.00
24306;BME280;12423;48.768;8.850;2022-08-19T09:00:35;96708.22;;;20.67;100.00
24306;BME280;12423;48.768;8.850;2022-08-19T09:02:37;96707.44;;;20.79;100.00
24306;BME280;12423;48.768;8.850;2022-08-19T09:04:38;96703.91;;;20.86;100.00
24306;BME280;12423;48.768;8.850;2022-08-19T09:09:20;96713.50;;;20.82;100.00
24306;BME280;12423;48.768;8.850;2022-08-19T09:12:03;96713.09;;;20.98;100.00
24306;BME280;12423;48.768;8.850;2022-08-19T09:14:08;96717.28;;;20.94;100.00
24306;BME280;12423;48.768;8.850;2022-08-19T09:16:16;96712.91;;;20.93;100.00
24306;BME280;12423;48.768;8.850;2022-08-19T09:18:21;96711.22;;;20.98;100.00
24306;BME280;12423;48.768;8.850;2022-08-19T09:20:23;96718.94;;;20.95;100.00
24306;BME280;12423;48.768;8.850;2022-08-19T09:22:24;96714.13;;;20.84;100.00
24306;BME280;12423;48.768;8.850;2022-08-19T09:24:27;96716.00;;;20.83;100.00
24306;BME280;12423;48.768;8.850;2022-08-19T09:26:28;96725.63;;;20.86;100.00
24306;BME280;12423;48.768;8.850;2022-08-19T09:28:30;96719.13;;;20.87;100.00
24306;BME280;12423;48.768;8.850;2022-08-19T09:30:37;96722.50;;;20.89;100.00
24306;BME280;12423;48.768;8.850;2022-08-19T09:32:39;96724.97;;;20.90;100.00
24306;BME280;12423;48.768;8.850;2022-08-19T09:34:42;96723.53;;;20.88;100.00
24306;BME280;12423;48.768;8.850;2022-08-19T09:36:44;96725.66;;;20.99;100.00
24306;BME280;12423;48.768;8.850;2022-08-19T09:38:45;96721.66;;;21.02;100.00
24306;BME280;12423;48.768;8.850;2022-08-19T09:40:46;96723.56;;;21.08;100.00
24306;BME280;12423;48.768;8.850;2022-08-19T09:42:47;96713.53;;;21.15;100.00
24306;BME280;12423;48.768;8.850;2022-08-19T09:44:48;96721.06;;;21.06;100.00
24306;BME280;12423;48.768;8.850;2022-08-19T09:46:49;96719.41;;;21.05;100.00
24306;BME280;12423;48.768;8.850;2022-08-19T09:48:51;96732.31;;;20.96;100.00
24306;BME280;12423;48.768;8.850;2022-08-19T09:50:53;96733.56;;;20.87;100.00
24306;BME280;12423;48.768;8.850;2022-08-19T09:52:54;96736.47;;;20.86;100.00
24306;BME280;12423;48.768;8.850;2022-08-19T09:54:55;96728.13;;;20.87;100.00
24306;BME280;12423;48.768;8.850;2022-08-19T09:56:58;96738.81;;;20.95;100.00
24306;BME280;12423;48.768;8.850;2022-08-19T09:59:02;96725.66;;;20.99;100.00
24306;BME280;12423;48.768;8.850;2022-08-19T10:01:06;96730.25;;;21.05;100.00
24306;BME280;12423;48.768;8.850;2022-08-19T10:03:07;96730.03;;;21.13;100.00
24306;BME280;12423;48.768;8.850;2022-08-19T10:05:08;96731.53;;;21.23;100.00
24306;BME280;12423;48.768;8.850;2022-08-19T10:07:29;96736.56;;;21.26;100.00
24306;BME280;12423;48.768;8.850;2022-08-19T10:09:30;96736.34;;;21.27;100.00
24306;BME280;12423;48.768;8.850;2022-08-19T10:11:32;96736.97;;;21.29;100.00
24306;BME280;12423;48.768;8.850;2022-08-19T10:13:33;96733.00;;;21.32;100.00
24306;BME280;12423;48.768;8.850;2022-08-19T10:15:36;96734.88;;;21.38;100.00
24306;BME280;12423;48.768;8.850;2022-08-19T10:17:40;96724.25;;;21.43;100.00
24306;BME280;12423;48.768;8.850;2022-08-19T10:19:40;96729.03;;;21.41;100.00
24306;BME280;12423;48.768;8.850;2022-08-19T10:21:41;96729.69;;;21.43;100.00
24306;BME280;12423;48.768;8.850;2022-08-19T10:23:44;96730.94;;;21.54;100.00
24306;BME280;12423;48.768;8.850;2022-08-19T10:25:46;96728.66;;;21.58;100.00
24306;BME280;12423;48.768;8.850;2022-08-19T10:27:46;96739.94;;;21.61;100.00
24306;BME280;12423;48.768;8.850;2022-08-19T10:29:47;96721.13;;;21.53;100.00
24306;BME280;12423;48.768;8.850;2022-08-19T10:31:48;96733.25;;;21.57;100.00
24306;BME280;12423;48.768;8.850;2022-08-19T10:33:50;96741.63;;;21.62;100.00
24306;BME280;12423;48.768;8.850;2022-08-19T10:36:07;96734.28;;;21.63;100.00
24306;BME280;12423;48.768;8.850;2022-08-19T10:38:08;96728.84;;;21.63;100.00
24306;BME280;12423;48.768;8.850;2022-08-19T10:40:09;96733.03;;;21.72;100.00
24306;BME280;12423;48.768;8.850;2022-08-19T10:42:11;96729.09;;;21.68;100.00
24306;BME280;12423;48.768;8.850;2022-08-19T10:44:13;96716.13;;;21.70;100.00
24306;BME280;12423;48.768;8.850;2022-08-19T10:46:16;96726.13;;;21.76;100.00
24306;BME280;12423;48.768;8.850;2022-08-19T10:48:17;96713.78;;;21.80;100.00
24306;BME280;12423;48.768;8.850;2022-08-19T10:50:18;96704.81;;;21.86;100.00
24306;BME280;12423;48.768;8.850;2022-08-19T10:52:41;96705.38;;;22.02;100.00